Time;durP1;ratioP1;P1;durP2;ratioP2;P2;SDS_P1;SDS_P2;PMS_P1;PMS_P2;Temp;Humidity;BMP_temperature;BMP_pressure;BME280_temperature;BME280_humidity;BME280_pressure;Samples;Min_cycle;Max_cycle;Signal;HPM_P1;HPM_P2
2022/08/08 00:01:45;;;;;;;;;;;;;;;24.02;78.07;97071.50;622094;227;65063;-66
2022/08/08 00:04:17;;;;;;;;;;;;;;;24.01;78.10;97078.77;622124;227;64681;-66
2022/08/08 00:06:46;;;;;;;;;;;;;;;24.00;78.05;97079.84;622053;227;62549;-66
2022/08/08 00:09:18;;;;;;;;;;;;;;;24.00;78.01;97071.78;622193;228;67121;-66
2022/08/08 00:11:50;;;;;;;;;;;;;;;24.01;78.04;97073.39;622207;228;66767;-66
2022/08/08 00:14:37;;;;;;;;;;;;;;;24.01;77.98;97084.13;622141;227;63867;-67
2022/08/08 00:17:04;;;;;;;;;;;;;;;;;;622153;226;66755;-67
2022/08/08 00:19:35;;;;;;;;;;;;;;;24.00;77.97;97082.52;622250;228;65039;-67
2022/08/08 00:22:04;;;;;;;;;;;;;;;24.01;77.96;97080.63;622178;227;62735;-67
2022/08/08 00:24:36;;;;;;;;;;;;;;;24.01;77.90;97088.68;622204;228;64843;-67
2022/08/08 00:27:05;;;;;;;;;;;;;;;24.01;77.79;97084.13;622037;228;64686;-67
2022/08/08 00:29:35;;;;;;;;;;;;;;;24.00;77.75;97079.84;622237;228;63871;-67
2022/08/08 00:32:07;;;;;;;;;;;;;;;24.00;77.72;97082.52;622011;227;67207;-67
2022/08/08 00:37:36;;;;;;;;;;;;;;;24.00;77.68;97084.41;622240;228;63865;-66
2022/08/08 00:40:14;;;;;;;;;;;;;;;23.99;77.58;97097.04;622217;227;67229;-66
2022/08/08 00:42:43;;;;;;;;;;;;;;;24.00;77.52;97092.46;622263;228;64524;-66
2022/08/08 00:45:24;;;;;;;;;;;;;;;24.00;77.47;97087.09;621923;227;62649;-66
2022/08/08 00:48:10;;;;;;;;;;;;;;;24.00;77.41;97097.83;621854;227;67366;-66
2022/08/08 00:50:55;;;;;;;;;;;;;;;24.00;77.43;97097.83;622188;228;67674;-67
2022/08/08 00:53:40;;;;;;;;;;;;;;;23.99;77.37;97088.98;622251;228;65142;-67
2022/08/08 00:56:12;;;;;;;;;;;;;;;23.98;77.32;97087.40;621681;228;64791;-66
2022/08/08 00:58:51;;;;;;;;;;;;;;;23.98;77.30;97095.45;621874;227;66994;-66
2022/08/08 01:01:35;;;;;;;;;;;;;;;23.98;77.26;97100.82;621797;227;65349;-66
2022/08/08 01:04:14;;;;;;;;;;;;;;;23.98;77.25;97103.50;622074;227;44819;-66
2022/08/08 01:07:00;;;;;;;;;;;;;;;23.98;77.17;97108.88;621762;227;67309;-66
2022/08/08 01:09:36;;;;;;;;;;;;;;;23.97;77.15;97109.94;622248;227;44834;-66
2022/08/08 01:12:13;;;;;;;;;;;;;;;23.97;77.16;97104.58;622089;227;44242;-66
2022/08/08 01:14:45;;;;;;;;;;;;;;;23.98;77.10;97105.37;622170;228;66904;-66
2022/08/08 01:17:21;;;;;;;;;;;;;;;23.97;77.05;97107.26;622133;226;65714;-67
2022/08/08 01:19:57;;;;;;;;;;;;;;;23.98;77.04;97111.56;622233;227;46506;-66
2022/08/08 01:22:38;;;;;;;;;;;;;;;23.97;77.00;97096.52;622163;228;67604;-66
2022/08/08 01:25:25;;;;;;;;;;;;;;;23.97;76.93;97107.26;621954;227;65803;-66
2022/08/08 01:27:55;;;;;;;;;;;;;;;23.97;76.85;97104.58;622141;228;67699;-66
2022/08/08 01:30:27;;;;;;;;;;;;;;;23.97;76.78;97101.09;622193;228;66921;-66
2022/08/08 01:32:58;;;;;;;;;;;;;;;23.96;76.77;97102.98;622216;227;45498;-67
2022/08/08 01:35:44;;;;;;;;;;;;;;;23.96;76.70;97102.98;619986;228;67537;-67
2022/08/08 01:38:25;;;;;;;;;;;;;;;23.97;76.70;97095.73;622167;227;45154;-67
2022/08/08 01:40:56;;;;;;;;;;;;;;;23.97;76.62;97109.94;622294;227;50180;-67
2022/08/08 01:43:26;;;;;;;;;;;;;;;23.97;76.56;97096.52;622147;228;66925;-67
2022/08/08 01:45:55;;;;;;;;;;;;;;;23.96;76.50;97108.36;622073;227;67236;-67
2022/08/08 01:48:42;;;;;;;;;;;;;;;23.96;76.47;97105.67;622188;228;65725;-67
2022/08/08 01:51:11;;;;;;;;;;;;;;;23.96;76.38;97099.51;622190;228;67278;-67
2022/08/08 01:53:50;;;;;;;;;;;;;;;23.96;76.28;97100.30;622137;228;67657;-68
2022/08/08 01:56:22;;;;;;;;;;;;;;;23.96;76.24;97102.20;622226;228;65370;-67
2022/08/08 01:58:51;;;;;;;;;;;;;;;23.96;76.21;97108.36;622133;228;67163;-67
2022/08/08 02:01:38;;;;;;;;;;;;;;;23.96;76.24;97102.20;621971;227;44293;-67
2022/08/08 02:04:08;;;;;;;;;;;;;;;23.96;76.17;97102.20;622200;228;65293;-67
2022/08/08 02:06:49;;;;;;;;;;;;;;;23.97;76.08;97103.78;622065;227;67237;-67
2022/08/08 02:09:35;;;;;;;;;;;;;;;23.95;76.04;97101.38;622003;227;64744;-67
2022/08/08 02:12:04;;;;;;;;;;;;;;;23.96;75.97;97100.30;622169;228;65082;-67
2022/08/08 02:14:40;;;;;;;;;;;;;;;23.95;75.94;97105.95;622179;227;42796;-67
2022/08/08 02:17:13;;;;;;;;;;;;;;;23.95;75.93;97098.69;624695;226;67751;-67
2022/08/08 02:19:58;;;;;;;;;;;;;;;23.95;75.92;97104.05;626710;226;43746;-67
2022/08/08 02:22:33;;;;;;;;;;;;;;;23.94;75.86;97110.52;626614;226;64920;-67
2022/08/08 02:25:04;;;;;;;;;;;;;;;23.95;75.84;97108.62;626826;226;44915;-67
2022/08/08 02:27:33;;;;;;;;;;;;;;;23.94;75.83;97110.52;625802;226;63236;-67
2022/08/08 02:30:05;;;;;;;;;;;;;;;23.94;75.75;97110.52;626849;226;65040;-67
2022/08/08 02:32:44;;;;;;;;;;;;;;;23.94;75.70;97107.84;626764;226;44886;-68
2022/08/08 02:35:23;;;;;;;;;;;;;;;23.95;75.65;97117.47;626764;226;65272;-67
2022/08/08 02:38:09;;;;;;;;;;;;;;;23.94;75.62;97110.52;626465;226;46682;-67
2022/08/08 02:40:44;;;;;;;;;;;;;;;23.93;75.58;97109.73;625794;226;67350;-67
2022/08/08 02:43:30;;;;;;;;;;;;;;;23.93;75.55;97114.30;626802;226;65905;-68
2022/08/08 02:46:00;;;;;;;;;;;;;;;23.93;75.43;97111.62;626784;226;67550;-67
2022/08/08 02:48:33;;;;;;;;;;;;;;;23.92;75.23;97112.69;626787;226;65433;-67
2022/08/08 02:51:11;;;;;;;;;;;;;;;23.93;75.18;97111.62;626787;226;62915;-67
2022/08/08 02:53:51;;;;;;;;;;;;;;;23.92;75.16;97116.16;626849;226;50884;-67
2022/08/08 02:56:20;;;;;;;;;;;;;;;23.92;75.12;97112.69;626559;226;65091;-67
2022/08/08 02:58:51;;;;;;;;;;;;;;;23.93;75.09;97114.30;626767;226;65902;-67
2022/08/08 03:01:38;;;;;;;;;;;;;;;23.92;75.08;97116.16;626701;226;67045;-67
2022/08/08 03:04:26;;;;;;;;;;;;;;;23.93;75.02;97116.98;626771;226;65765;-67
2022/08/08 03:07:08;;;;;;;;;;;;;;;23.92;74.93;97118.05;626760;226;63626;-67
2022/08/08 03:09:53;;;;;;;;;;;;;;;23.92;74.88;97115.38;621749;226;67409;-67
2022/08/08 03:12:34;;;;;;;;;;;;;;;23.92;74.90;97118.05;626793;226;67052;-67
2022/08/08 03:15:04;;;;;;;;;;;;;;;23.91;74.84;97121.84;626767;226;64506;-67
2022/08/08 03:17:36;;;;;;;;;;;;;;;23.91;74.80;97125.31;626737;226;65835;-67
2022/08/08 03:20:06;;;;;;;;;;;;;;;23.91;74.76;97122.63;626699;226;67407;-67
2022/08/08 03:22:40;;;;;;;;;;;;;;;23.91;74.70;97129.89;626810;226;50503;-67
2022/08/08 03:25:08;;;;;;;;;;;;;;;23.91;74.64;97122.63;626562;226;64595;-68
2022/08/08 03:27:37;;;;;;;;;;;;;;;23.91;74.63;97121.84;626796;226;67371;-68
2022/08/08 03:30:04;;;;;;;;;;;;;;;;;;626715;226;65134;-68
2022/08/08 03:35:17;;;;;;;;;;;;;;;;;;626815;226;66929;-67
2022/08/08 03:37:45;;;;;;;;;;;;;;;23.92;74.44;97134.16;626869;226;65134;-67
2022/08/08 03:40:16;;;;;;;;;;;;;;;23.91;74.44;97138.73;626850;226;67082;-67
2022/08/08 03:42:44;;;;;;;;;;;;;;;23.91;74.38;97144.09;626815;226;66807;-67
2022/08/08 03:45:10;;;;;;;;;;;;;;;;;;626784;226;65042;-67
2022/08/08 03:47:38;;;;;;;;;;;;;;;23.91;74.29;97145.98;626847;226;65731;-67
2022/08/08 03:50:04;;;;;;;;;;;;;;;;;;626819;226;66994;-67
2022/08/08 03:52:33;;;;;;;;;;;;;;;23.91;74.22;97145.98;626713;226;44992;-67
2022/08/08 03:55:00;;;;;;;;;;;;;;;;;;626822;226;67951;-68
2022/08/08 03:57:27;;;;;;;;;;;;;;;23.91;74.20;97151.36;626828;226;66992;-68
2022/08/08 03:59:55;;;;;;;;;;;;;;;23.90;74.14;97149.77;626750;226;65039;-68
2022/08/08 04:02:23;;;;;;;;;;;;;;;23.91;74.05;97151.36;626777;226;64525;-68
2022/08/08 04:04:52;;;;;;;;;;;;;;;23.89;74.02;97150.84;626771;226;67285;-67
2022/08/08 04:07:18;;;;;;;;;;;;;;;;;;626828;226;65080;-67
2022/08/08 04:09:47;;;;;;;;;;;;;;;23.90;73.96;97152.45;626864;226;66873;-67
2022/08/08 04:12:14;;;;;;;;;;;;;;;;;;626390;226;64383;-67
2022/08/08 04:14:43;;;;;;;;;;;;;;;23.91;73.95;97167.46;626839;226;43645;-67
2022/08/08 04:17:11;;;;;;;;;;;;;;;23.90;73.86;97157.83;624120;226;67509;-67
2022/08/08 04:19:39;;;;;;;;;;;;;;;23.90;73.87;97165.87;622223;228;64488;-67
2022/08/08 04:22:06;;;;;;;;;;;;;;;;;;622184;228;65282;-67
2022/08/08 04:24:35;;;;;;;;;;;;;;;23.90;73.79;97163.19;622245;226;43315;-67
2022/08/08 04:27:05;;;;;;;;;;;;;;;23.90;73.73;97157.83;622153;228;67326;-67
2022/08/08 04:29:33;;;;;;;;;;;;;;;23.89;73.76;97167.73;622200;228;62930;-67
2022/08/08 04:32:01;;;;;;;;;;;;;;;23.90;73.71;97163.19;622197;228;67668;-67
2022/08/08 04:34:30;;;;;;;;;;;;;;;23.89;73.72;97167.73;622264;228;63221;-67
2022/08/08 04:36:57;;;;;;;;;;;;;;;23.90;73.71;97163.19;622149;228;66050;-67
2022/08/08 04:39:25;;;;;;;;;;;;;;;23.89;73.73;97170.42;622167;228;67134;-67
2022/08/08 04:41:52;;;;;;;;;;;;;;;23.89;73.80;97169.62;622182;228;65016;-67
2022/08/08 04:44:20;;;;;;;;;;;;;;;23.88;73.78;97162.67;622172;228;64957;-67
2022/08/08 04:46:48;;;;;;;;;;;;;;;23.89;73.77;97162.37;622217;228;67130;-67
2022/08/08 04:49:16;;;;;;;;;;;;;;;23.89;73.85;97172.31;622182;228;64508;-67
2022/08/08 04:51:44;;;;;;;;;;;;;;;23.89;73.85;97172.31;622173;228;63041;-67
2022/08/08 04:54:12;;;;;;;;;;;;;;;23.90;73.86;97179.30;622166;228;64556;-67
2022/08/08 04:56:41;;;;;;;;;;;;;;;23.88;73.91;97179.57;622176;228;67399;-67
2022/08/08 04:59:08;;;;;;;;;;;;;;;23.89;73.93;97189.21;622248;228;65732;-67
2022/08/08 05:01:36;;;;;;;;;;;;;;;23.89;73.94;97180.36;622123;228;64362;-67
2022/08/08 05:04:04;;;;;;;;;;;;;;;23.88;73.95;97171.52;622004;228;66924;-65
2022/08/08 05:06:33;;;;;;;;;;;;;;;23.88;73.91;97178.78;622164;227;42963;-67
2022/08/08 05:09:01;;;;;;;;;;;;;;;23.88;73.98;97176.09;622151;228;67483;-67
2022/08/08 05:11:28;;;;;;;;;;;;;;;23.88;74.00;97179.57;622235;228;65933;-66
2022/08/08 05:13:57;;;;;;;;;;;;;;;23.88;74.06;97187.63;622165;227;43483;-66
2022/08/08 05:16:26;;;;;;;;;;;;;;;23.89;74.05;97183.05;622126;226;67879;-66
2022/08/08 05:18:55;;;;;;;;;;;;;;;23.89;74.10;97183.84;622175;228;66988;-66
2022/08/08 05:21:23;;;;;;;;;;;;;;;23.89;74.12;97183.05;622195;228;62659;-66
2022/08/08 05:23:52;;;;;;;;;;;;;;;23.88;74.21;97181.46;622162;228;67193;-66
2022/08/08 05:26:21;;;;;;;;;;;;;;;23.88;74.23;97178.78;622240;228;67252;-66
2022/08/08 05:28:48;;;;;;;;;;;;;;;23.89;74.29;97189.21;622132;228;64920;-66
2022/08/08 05:31:16;;;;;;;;;;;;;;;23.87;74.32;97196.77;622113;228;65850;-66
2022/08/08 05:33:44;;;;;;;;;;;;;;;23.89;74.35;97191.09;622176;228;67498;-66
2022/08/08 05:36:12;;;;;;;;;;;;;;;23.88;74.41;97192.98;622191;228;63667;-66
2022/08/08 05:38:41;;;;;;;;;;;;;;;23.88;74.46;97192.98;622209;228;67724;-66
2022/08/08 05:41:09;;;;;;;;;;;;;;;23.88;74.50;97192.98;622073;227;67672;-66
2022/08/08 05:43:38;;;;;;;;;;;;;;;23.90;74.52;97195.41;622129;228;63776;-66
2022/08/08 05:46:07;;;;;;;;;;;;;;;23.88;74.51;97189.52;618677;228;67022;-70
2022/08/08 05:48:37;;;;;;;;;;;;;;;23.89;74.66;97199.16;615103;230;39729;-69
2022/08/08 05:51:06;;;;;;;;;;;;;;;23.89;74.15;97188.41;615040;230;65640;-67
2022/08/08 05:53:34;;;;;;;;;;;;;;;23.88;73.87;97198.36;615136;230;67221;-72
2022/08/08 05:56:01;;;;;;;;;;;;;;;23.87;73.60;97198.63;614312;230;65062;-67
2022/08/08 05:58:33;;;;;;;;;;;;;;;23.87;73.64;97198.63;616042;228;66067;-66
2022/08/08 06:01:01;;;;;;;;;;;;;;;23.87;73.55;97191.41;622107;228;67665;-67
2022/08/08 06:03:30;;;;;;;;;;;;;;;23.88;73.57;97197.56;621921;228;67707;-64
2022/08/08 06:06:02;;;;;;;;;;;;;;;23.87;73.87;97190.58;621857;226;44202;-67
2022/08/08 06:08:31;;;;;;;;;;;;;;;23.88;73.80;97200.25;622122;228;67719;-67
2022/08/08 06:11:01;;;;;;;;;;;;;;;23.87;73.82;97195.95;622018;227;44602;-68
2022/08/08 06:13:30;;;;;;;;;;;;;;;23.86;74.07;97195.16;622011;228;62471;-67
2022/08/08 06:15:58;;;;;;;;;;;;;;;23.86;74.22;97195.16;622078;226;66997;-67
2022/08/08 06:18:28;;;;;;;;;;;;;;;23.87;74.32;97198.63;621958;227;45499;-68
2022/08/08 06:20:57;;;;;;;;;;;;;;;23.86;74.33;97197.83;622118;228;65607;-68
2022/08/08 06:23:26;;;;;;;;;;;;;;;23.88;74.43;97189.52;622002;228;67880;-66
2022/08/08 06:25:56;;;;;;;;;;;;;;;23.88;74.38;97192.20;622065;228;67344;-67
2022/08/08 06:28:32;;;;;;;;;;;;;;;23.88;74.59;97190.30;621771;227;65995;-67
2022/08/08 06:31:01;;;;;;;;;;;;;;;23.89;74.64;97191.89;622055;228;65814;-69
2022/08/08 06:33:37;;;;;;;;;;;;;;;23.90;74.61;97190.03;622163;228;66996;-68
2022/08/08 06:36:06;;;;;;;;;;;;;;;23.91;74.64;97196.98;622110;228;64982;-68
2022/08/08 06:38:40;;;;;;;;;;;;;;;23.91;74.73;97191.62;622075;228;64762;-67
2022/08/08 06:41:11;;;;;;;;;;;;;;;23.91;72.86;97186.25;621957;227;66722;-66
2022/08/08 06:43:41;;;;;;;;;;;;;;;23.91;73.71;97178.20;622080;228;65916;-65
2022/08/08 06:46:14;;;;;;;;;;;;;;;23.92;74.53;97188.63;622015;227;43510;-66
2022/08/08 06:48:42;;;;;;;;;;;;;;;23.93;71.58;97189.46;622145;228;67333;-65
2022/08/08 06:51:14;;;;;;;;;;;;;;;23.95;74.79;97189.95;622167;228;62386;-64
2022/08/08 06:53:41;;;;;;;;;;;;;;;23.94;74.82;97185.67;622035;228;67110;-64
2022/08/08 06:56:10;;;;;;;;;;;;;;;23.94;74.65;97185.67;618910;228;64799;-64
2022/08/08 06:58:38;;;;;;;;;;;;;;;23.95;74.45;97187.27;618737;228;65727;-64
2022/08/08 07:01:09;;;;;;;;;;;;;;;23.95;74.54;97191.84;615940;228;67590;-64
2022/08/08 07:03:38;;;;;;;;;;;;;;;23.95;74.72;97184.58;614967;230;67312;-64
2022/08/08 07:06:07;;;;;;;;;;;;;;;23.99;75.05;97188.30;610475;230;64337;-64
2022/08/08 07:08:39;;;;;;;;;;;;;;;23.99;73.65;97192.88;615065;230;67197;-64
2022/08/08 07:11:08;;;;;;;;;;;;;;;24.00;75.22;97186.41;614844;230;65126;-64
2022/08/08 07:13:40;;;;;;;;;;;;;;;23.98;75.22;97194.77;614952;229;65754;-67
2022/08/08 07:16:24;;;;;;;;;;;;;;;23.97;75.11;97185.10;615049;229;67258;-67
2022/08/08 07:18:56;;;;;;;;;;;;;;;23.98;72.21;97192.09;615111;230;64926;-64
2022/08/08 07:21:26;;;;;;;;;;;;;;;23.97;71.06;97190.47;615023;229;60991;-62
2022/08/08 07:24:00;;;;;;;;;;;;;;;23.98;70.50;97189.41;615018;229;44272;-64
2022/08/08 07:26:29;;;;;;;;;;;;;;;24.00;73.35;97179.16;615072;230;67075;-65
2022/08/08 07:28:57;;;;;;;;;;;;;;;24.07;72.17;97192.25;615133;230;65837;-64
2022/08/08 07:31:25;;;;;;;;;;;;;;;24.04;71.10;97187.46;615098;230;66885;-64
2022/08/08 07:33:53;;;;;;;;;;;;;;;24.04;71.07;97193.63;615050;230;64907;-63
2022/08/08 07:36:22;;;;;;;;;;;;;;;24.05;72.26;97186.36;614935;230;65176;-64
2022/08/08 07:38:51;;;;;;;;;;;;;;;24.06;73.05;97187.95;615079;230;67601;-64
2022/08/08 07:41:18;;;;;;;;;;;;;;;24.04;74.76;97185.57;615102;230;64486;-64
2022/08/08 07:43:48;;;;;;;;;;;;;;;24.03;75.41;97189.31;614958;230;65829;-64
2022/08/08 07:46:15;;;;;;;;;;;;;;;24.03;75.54;97189.31;614974;230;64617;-64
2022/08/08 07:48:43;;;;;;;;;;;;;;;24.02;75.83;97185.05;615081;230;67103;-64
2022/08/08 07:51:11;;;;;;;;;;;;;;;24.02;76.12;97190.41;615056;230;64993;-63
2022/08/08 07:53:42;;;;;;;;;;;;;;;24.03;76.52;97188.52;615068;229;45681;-63
2022/08/08 07:56:12;;;;;;;;;;;;;;;24.03;76.65;97189.31;614858;229;64962;-63
2022/08/08 07:58:41;;;;;;;;;;;;;;;24.04;76.71;97187.46;615065;230;63972;-64
2022/08/08 08:01:14;;;;;;;;;;;;;;;24.03;76.94;97189.31;615087;230;64560;-64
2022/08/08 08:03:43;;;;;;;;;;;;;;;24.03;76.93;97183.95;614984;230;66920;-63
2022/08/08 08:06:13;;;;;;;;;;;;;;;24.03;77.13;97186.63;615104;229;42451;-63
2022/08/08 08:08:44;;;;;;;;;;;;;;;24.04;77.26;97184.77;615136;229;45710;-63
2022/08/08 08:11:13;;;;;;;;;;;;;;;24.03;77.38;97183.16;610848;230;65197;-63
2022/08/08 08:13:42;;;;;;;;;;;;;;;24.04;77.49;97182.09;614992;230;65636;-64
2022/08/08 08:16:11;;;;;;;;;;;;;;;24.03;77.67;97178.58;615016;229;67911;-63
2022/08/08 08:18:48;;;;;;;;;;;;;;;24.04;77.80;97179.41;615046;229;48917;-65
2022/08/08 08:21:16;;;;;;;;;;;;;;;24.03;77.79;97178.58;614812;229;62722;-64
2022/08/08 08:23:44;;;;;;;;;;;;;;;24.04;77.52;97174.83;615006;230;67207;-64
2022/08/08 08:26:16;;;;;;;;;;;;;;;24.04;77.01;97177.52;615026;230;65324;-64
2022/08/08 08:28:44;;;;;;;;;;;;;;;24.03;77.62;97175.90;615057;230;62521;-64
2022/08/08 08:31:12;;;;;;;;;;;;;;;24.03;77.55;97178.58;615092;230;67204;-64
2022/08/08 08:33:39;;;;;;;;;;;;;;;24.04;77.54;97176.72;605911;230;68328;-64
2022/08/08 08:36:09;;;;;;;;;;;;;;;24.04;77.51;97174.83;611722;230;64975;-64
2022/08/08 08:38:39;;;;;;;;;;;;;;;24.04;77.55;97180.20;615002;230;67697;-64
2022/08/08 08:41:11;;;;;;;;;;;;;;;24.05;77.53;97189.05;614975;229;44299;-67
2022/08/08 08:43:40;;;;;;;;;;;;;;;24.03;75.94;97178.58;615037;230;65108;-66
2022/08/08 08:46:09;;;;;;;;;;;;;;;24.05;76.36;97179.10;614911;229;67611;-66
2022/08/08 08:48:38;;;;;;;;;;;;;;;24.05;74.63;97175.63;615053;230;67106;-67
2022/08/08 08:51:07;;;;;;;;;;;;;;;24.06;74.41;97172.66;615056;230;64857;-64
2022/08/08 08:53:36;;;;;;;;;;;;;;;24.07;77.07;97171.56;614963;230;67969;-66
2022/08/08 08:56:10;;;;;;;;;;;;;;;24.07;72.48;97173.45;614986;230;45580;-68
2022/08/08 08:58:47;;;;;;;;;;;;;;;24.08;74.48;97158.94;615088;229;44149;-66
2022/08/08 09:01:17;;;;;;;;;;;;;;;24.08;76.86;97161.62;615045;230;67110;-65
2022/08/08 09:03:48;;;;;;;;;;;;;;;24.07;77.82;97165.41;615036;230;67492;-67
2022/08/08 09:06:23;;;;;;;;;;;;;;;24.06;77.95;97161.10;615143;230;62987;-67
2022/08/08 09:08:52;;;;;;;;;;;;;;;24.06;77.90;97156.56;615071;230;67107;-66
2022/08/08 09:11:21;;;;;;;;;;;;;;;24.06;77.78;97153.05;615100;230;67366;-64
2022/08/08 09:13:50;;;;;;;;;;;;;;;24.05;77.86;97152.25;614988;230;62907;-66
2022/08/08 09:16:19;;;;;;;;;;;;;;;24.06;77.80;97155.73;614971;229;67296;-71
2022/08/08 09:18:47;;;;;;;;;;;;;;;24.06;77.86;97148.50;615061;230;64352;-68
2022/08/08 09:21:14;;;;;;;;;;;;;;;24.07;77.99;97151.98;615126;230;65820;-69
2022/08/08 09:23:42;;;;;;;;;;;;;;;24.05;77.90;97152.25;614993;230;67722;-66
2022/08/08 09:26:20;;;;;;;;;;;;;;;24.06;77.85;97147.68;615054;230;67045;-66
2022/08/08 09:28:49;;;;;;;;;;;;;;;24.06;78.06;97137.77;617230;228;65577;-65
2022/08/08 09:31:38;;;;;;;;;;;;;;;24.05;78.24;97136.14;616503;227;44253;-65
2022/08/08 09:34:06;;;;;;;;;;;;;;;24.06;78.31;97135.08;614971;230;66898;-66
2022/08/08 09:36:35;;;;;;;;;;;;;;;24.07;78.28;97127.82;614977;228;65079;-65
2022/08/08 09:39:04;;;;;;;;;;;;;;;24.06;78.28;97135.08;614995;229;64521;-65
2022/08/08 09:41:34;;;;;;;;;;;;;;;24.07;78.19;97141.24;614965;230;67373;-65
2022/08/08 09:44:03;;;;;;;;;;;;;;;24.06;72.14;97127.02;614995;230;64950;-65
2022/08/08 09:46:32;;;;;;;;;;;;;;;24.09;71.37;97133.67;614953;229;67031;-65
2022/08/08 09:49:00;;;;;;;;;;;;;;;24.09;71.74;97131.81;615096;230;66813;-66
2022/08/08 09:51:29;;;;;;;;;;;;;;;24.11;75.22;97118.88;615009;230;62651;-67
2022/08/08 09:53:58;;;;;;;;;;;;;;;24.11;77.10;97110.03;614982;230;64960;-65
2022/08/08 09:56:27;;;;;;;;;;;;;;;24.10;77.72;97114.61;614994;229;64497;-66
2022/08/08 09:58:56;;;;;;;;;;;;;;;24.09;77.67;97110.34;615044;230;65002;-66
2022/08/08 10:01:25;;;;;;;;;;;;;;;24.09;77.67;97107.66;614822;229;64443;-64
2022/08/08 10:03:54;;;;;;;;;;;;;;;24.08;72.38;97105.24;615051;229;64954;-64
2022/08/08 10:06:21;;;;;;;;;;;;;;;24.10;74.12;97103.87;614956;230;65109;-66
2022/08/08 10:08:50;;;;;;;;;;;;;;;24.11;75.73;97099.30;615046;230;67431;-65
2022/08/08 10:11:18;;;;;;;;;;;;;;;24.10;77.18;97106.55;614924;230;64777;-66
2022/08/08 10:13:53;;;;;;;;;;;;;;;24.15;70.22;97105.70;615039;230;62756;-65
2022/08/08 10:16:21;;;;;;;;;;;;;;;24.17;74.98;97106.19;616031;229;64838;-66
2022/08/08 10:18:49;;;;;;;;;;;;;;;24.14;75.85;97094.16;619470;229;67059;-67
2022/08/08 10:21:18;;;;;;;;;;;;;;;24.13;77.39;97094.44;619551;229;64895;-67
2022/08/08 10:23:47;;;;;;;;;;;;;;;24.11;77.06;97099.30;619578;229;67066;-65
2022/08/08 10:26:32;;;;;;;;;;;;;;;24.11;77.01;97094.72;619538;229;65002;-66
2022/08/08 10:29:04;;;;;;;;;;;;;;;24.10;77.17;97093.12;619561;229;64974;-65
2022/08/08 10:34:20;;;;;;;;;;;;;;;24.09;76.93;97085.35;612757;229;68405;-65
2022/08/08 10:36:48;;;;;;;;;;;;;;;24.10;77.08;97086.97;607136;229;68670;-65
2022/08/08 10:39:23;;;;;;;;;;;;;;;24.09;77.03;97080.80;612372;229;64782;-66
2022/08/08 10:41:58;;;;;;;;;;;;;;;24.09;77.07;97083.48;619430;229;64860;-65
2022/08/08 10:44:27;;;;;;;;;;;;;;;24.09;77.04;97088.03;619600;229;65227;-65
2022/08/08 10:46:55;;;;;;;;;;;;;;;24.08;77.38;97063.08;619221;229;67380;-65
2022/08/08 10:49:24;;;;;;;;;;;;;;;24.08;77.39;97073.82;619585;229;66345;-65
2022/08/08 10:51:53;;;;;;;;;;;;;;;24.09;77.42;97082.66;619624;229;64965;-66
2022/08/08 10:54:21;;;;;;;;;;;;;;;24.09;77.44;97072.75;619549;229;66803;-65
2022/08/08 10:56:58;;;;;;;;;;;;;;;24.09;77.46;97061.19;619491;229;65055;-67
2022/08/08 10:59:26;;;;;;;;;;;;;;;24.10;77.87;97065.48;619325;229;62770;-66
2022/08/08 11:01:54;;;;;;;;;;;;;;;24.10;78.02;97068.97;619626;229;66918;-66
2022/08/08 11:04:21;;;;;;;;;;;;;;;24.10;77.75;97077.02;619657;229;64524;-66
2022/08/08 11:06:50;;;;;;;;;;;;;;;24.09;77.51;97053.95;619577;229;65279;-66
2022/08/08 11:09:18;;;;;;;;;;;;;;;24.09;77.46;97053.95;619167;229;64346;-66
2022/08/08 11:11:46;;;;;;;;;;;;;;;24.09;77.51;97048.59;619607;229;67067;-66
2022/08/08 11:14:15;;;;;;;;;;;;;;;24.09;77.71;97048.59;619439;229;64986;-65
2022/08/08 11:16:44;;;;;;;;;;;;;;;24.16;70.92;97048.21;617714;229;64423;-67
2022/08/08 11:19:12;;;;;;;;;;;;;;;24.17;74.84;97059.75;615086;230;65763;-65
2022/08/08 11:21:44;;;;;;;;;;;;;;;24.15;76.12;97060.05;614494;230;63588;-66
2022/08/08 11:24:10;;;;;;;;;;;;;;;24.14;76.65;97050.38;614709;229;65169;-67
2022/08/08 11:26:40;;;;;;;;;;;;;;;24.12;68.39;97050.69;615121;230;64989;-65
2022/08/08 11:29:08;;;;;;;;;;;;;;;24.15;71.01;97043.94;615119;230;62995;-66
2022/08/08 11:31:36;;;;;;;;;;;;;;;24.19;64.87;97046.83;615000;230;64846;-66
2022/08/08 11:34:05;;;;;;;;;;;;;;;24.20;63.60;97034.99;615073;230;66934;-66
2022/08/08 11:36:33;;;;;;;;;;;;;;;24.24;71.10;97044.08;615067;230;64986;-66
2022/08/08 11:39:01;;;;;;;;;;;;;;;24.19;69.25;97055.68;615101;230;65872;-66
2022/08/08 11:41:29;;;;;;;;;;;;;;;24.20;70.65;97037.67;615130;230;67232;-66
2022/08/08 11:43:57;;;;;;;;;;;;;;;24.19;75.12;97036.09;615054;230;62645;-66
2022/08/08 11:46:26;;;;;;;;;;;;;;;24.18;75.99;97037.19;615000;230;64965;-66
2022/08/08 11:48:54;;;;;;;;;;;;;;;24.17;73.65;97032.89;615089;230;65088;-66
2022/08/08 11:51:23;;;;;;;;;;;;;;;24.17;73.40;97016.78;614986;230;62812;-66
2022/08/08 11:53:51;;;;;;;;;;;;;;;24.17;71.26;97041.73;615110;230;64823;-66
2022/08/08 11:56:22;;;;;;;;;;;;;;;24.18;73.16;97029.14;615989;228;67047;-66
2022/08/08 11:58:50;;;;;;;;;;;;;;;24.18;75.41;97031.82;618347;228;62716;-67
2022/08/08 12:01:17;;;;;;;;;;;;;;;24.16;75.71;97024.05;621112;228;67126;-66
2022/08/08 12:03:49;;;;;;;;;;;;;;;24.15;75.90;97030.52;622174;228;66758;-67
2022/08/08 12:06:18;;;;;;;;;;;;;;;24.14;76.14;97018.98;622135;228;65068;-70
2022/08/08 12:08:47;;;;;;;;;;;;;;;24.14;76.34;97029.72;622175;228;64745;-67
2022/08/08 12:11:21;;;;;;;;;;;;;;;24.15;76.38;97025.94;622090;228;65120;-67
2022/08/08 12:13:49;;;;;;;;;;;;;;;24.14;76.50;97021.67;621796;227;63812;-72
2022/08/08 12:16:18;;;;;;;;;;;;;;;24.14;76.57;97024.36;622026;226;64830;-67
2022/08/08 12:18:53;;;;;;;;;;;;;;;24.15;76.59;97019.78;621979;228;67046;-67
2022/08/08 12:21:22;;;;;;;;;;;;;;;24.14;76.64;97028.90;621186;228;65221;-67
2022/08/08 12:23:50;;;;;;;;;;;;;;;24.14;76.73;97018.98;621222;228;67026;-67
2022/08/08 12:26:19;;;;;;;;;;;;;;;24.14;76.89;97018.98;622143;228;64842;-67
2022/08/08 12:28:56;;;;;;;;;;;;;;;24.14;76.81;97016.30;622132;228;64912;-67
2022/08/08 12:31:33;;;;;;;;;;;;;;;24.14;76.95;97002.88;622141;228;66724;-67
2022/08/08 12:34:01;;;;;;;;;;;;;;;24.14;76.95;97007.42;622088;228;64990;-67
2022/08/08 12:36:41;;;;;;;;;;;;;;;24.14;76.88;97002.88;622140;228;65027;-67
2022/08/08 12:39:09;;;;;;;;;;;;;;;24.15;76.86;97017.09;622191;228;67483;-67
2022/08/08 12:41:37;;;;;;;;;;;;;;;24.15;76.75;97015.20;622049;228;67173;-67
2022/08/08 12:44:08;;;;;;;;;;;;;;;24.15;76.71;96999.09;622162;228;64887;-66
2022/08/08 12:46:36;;;;;;;;;;;;;;;24.15;76.80;96995.61;622066;228;67519;-68
2022/08/08 12:49:05;;;;;;;;;;;;;;;24.15;76.83;97004.46;622037;228;64968;-69
2022/08/08 12:51:40;;;;;;;;;;;;;;;24.15;76.93;96991.03;622164;228;64900;-68
2022/08/08 12:54:08;;;;;;;;;;;;;;;24.15;76.92;96982.19;621049;227;64780;-68
2022/08/08 12:56:37;;;;;;;;;;;;;;;24.15;76.94;96982.98;621976;228;66992;-69
2022/08/08 12:59:15;;;;;;;;;;;;;;;24.15;76.79;96991.03;622150;228;62638;-68
2022/08/08 13:01:44;;;;;;;;;;;;;;;24.16;76.70;96989.14;622096;228;67152;-69
2022/08/08 13:04:13;;;;;;;;;;;;;;;24.16;76.74;96978.41;621982;227;66957;-69
2022/08/08 13:06:42;;;;;;;;;;;;;;;24.17;76.79;96968.45;622110;228;65219;-69
2022/08/08 13:09:10;;;;;;;;;;;;;;;24.17;76.78;96976.51;621876;227;67331;-69
2022/08/08 13:11:37;;;;;;;;;;;;;;;24.16;76.85;96975.72;622042;228;64580;-70
2022/08/08 13:14:15;;;;;;;;;;;;;;;24.17;76.89;96971.93;622088;228;64927;-70
2022/08/08 13:16:35;;;;;;;;;;;;;;;24.18;76.88;96967.37;623125;226;67097;-70
2022/08/08 13:19:05;;;;;;;;;;;;;;;24.17;76.83;96979.19;626759;226;66618;-69
2022/08/08 13:21:34;;;;;;;;;;;;;;;24.18;76.79;96970.06;626723;226;65065;-69